sensor_id;sensor_type;location;lat;lon;timestamp;P1;durP1;ratioP1;P2;durP2;ratioP2
3571;SDS011;7958;53.024;12.970;2023-04-16T00:01:26;31.53;;;17.50;;
3571;SDS011;7958;53.024;12.970;2023-04-16T00:03:52;27.70;;;17.17;;
3571;SDS011;7958;53.024;12.970;2023-04-16T00:06:21;20.80;;;15.43;;
3571;SDS011;7958;53.024;12.970;2023-04-16T00:08:47;25.40;;;16.43;;
3571;SDS011;7958;53.024;12.970;2023-04-16T00:11:14;26.80;;;17.53;;
3571;SDS011;7958;53.024;12.970;2023-04-16T00:13:40;28.13;;;17.33;;
3571;SDS011;7958;53.024;12.970;2023-04-16T00:16:07;25.30;;;17.23;;
3571;SDS011;7958;53.024;12.970;2023-04-16T00:18:33;27.80;;;16.63;;
3571;SDS011;7958;53.024;12.970;2023-04-16T00:21:00;26.00;;;17.33;;
3571;SDS011;7958;53.024;12.970;2023-04-16T00:23:28;31.30;;;17.70;;
3571;SDS011;7958;53.024;12.970;2023-04-16T00:25:54;29.13;;;17.10;;
3571;SDS011;7958;53.024;12.970;2023-04-16T00:28:23;28.03;;;17.23;;
3571;SDS011;7958;53.024;12.970;2023-04-16T00:30:52;23.93;;;16.67;;
3571;SDS011;7958;53.024;12.970;2023-04-16T00:33:19;24.77;;;16.63;;
3571;SDS011;7958;53.024;12.970;2023-04-16T00:35:54;26.50;;;17.37;;
3571;SDS011;7958;53.024;12.970;2023-04-16T00:38:21;28.17;;;16.83;;
3571;SDS011;7958;53.024;12.970;2023-04-16T00:40:49;30.23;;;18.13;;
3571;SDS011;7958;53.024;12.970;2023-04-16T00:43:19;25.97;;;17.40;;
3571;SDS011;7958;53.024;12.970;2023-04-16T00:45:46;24.20;;;16.90;;
3571;SDS011;7958;53.024;12.970;2023-04-16T00:48:13;31.27;;;18.20;;
3571;SDS011;7958;53.024;12.970;2023-04-16T00:50:39;31.20;;;16.60;;
3571;SDS011;7958;53.024;12.970;2023-04-16T00:53:06;23.70;;;16.53;;
3571;SDS011;7958;53.024;12.970;2023-04-16T00:55:35;35.10;;;18.60;;
3571;SDS011;7958;53.024;12.970;2023-04-16T00:58:03;25.27;;;17.30;;
3571;SDS011;7958;53.024;12.970;2023-04-16T01:00:29;27.77;;;16.47;;
3571;SDS011;7958;53.024;12.970;2023-04-16T01:02:56;25.27;;;16.30;;
3571;SDS011;7958;53.024;12.970;2023-04-16T01:05:22;22.03;;;15.77;;
3571;SDS011;7958;53.024;12.970;2023-04-16T01:07:49;33.33;;;17.67;;
3571;SDS011;7958;53.024;12.970;2023-04-16T01:10:15;26.43;;;17.00;;
3571;SDS011;7958;53.024;12.970;2023-04-16T01:12:41;22.40;;;16.10;;
3571;SDS011;7958;53.024;12.970;2023-04-16T01:15:10;22.80;;;16.93;;
3571;SDS011;7958;53.024;12.970;2023-04-16T01:17:37;24.63;;;16.13;;
3571;SDS011;7958;53.024;12.970;2023-04-16T01:20:03;28.47;;;16.33;;
3571;SDS011;7958;53.024;12.970;2023-04-16T01:22:34;27.80;;;16.27;;
3571;SDS011;7958;53.024;12.970;2023-04-16T01:25:00;23.17;;;16.27;;
3571;SDS011;7958;53.024;12.970;2023-04-16T01:27:27;22.37;;;16.30;;
3571;SDS011;7958;53.024;12.970;2023-04-16T01:29:53;26.43;;;17.90;;
3571;SDS011;7958;53.024;12.970;2023-04-16T01:32:20;28.23;;;17.60;;
3571;SDS011;7958;53.024;12.970;2023-04-16T01:34:48;33.00;;;17.20;;
3571;SDS011;7958;53.024;12.970;2023-04-16T01:37:15;26.50;;;17.57;;
3571;SDS011;7958;53.024;12.970;2023-04-16T01:39:50;24.50;;;16.63;;
3571;SDS011;7958;53.024;12.970;2023-04-16T01:42:17;25.10;;;16.93;;
3571;SDS011;7958;53.024;12.970;2023-04-16T01:44:43;25.23;;;16.17;;
3571;SDS011;7958;53.024;12.970;2023-04-16T01:47:12;32.77;;;17.73;;
3571;SDS011;7958;53.024;12.970;2023-04-16T01:49:38;25.67;;;17.37;;
3571;SDS011;7958;53.024;12.970;2023-04-16T01:52:05;26.70;;;17.40;;
3571;SDS011;7958;53.024;12.970;2023-04-16T01:54:32;28.10;;;17.53;;
3571;SDS011;7958;53.024;12.970;2023-04-16T01:57:00;26.93;;;17.77;;
3571;SDS011;7958;53.024;12.970;2023-04-16T01:59:29;30.00;;;18.60;;
3571;SDS011;7958;53.024;12.970;2023-04-16T02:01:56;29.63;;;16.93;;
3571;SDS011;7958;53.024;12.970;2023-04-16T02:04:28;34.00;;;17.43;;
3571;SDS011;7958;53.024;12.970;2023-04-16T02:06:54;26.50;;;16.27;;
3571;SDS011;7958;53.024;12.970;2023-04-16T02:09:20;27.13;;;16.77;;
3571;SDS011;7958;53.024;12.970;2023-04-16T02:11:47;25.00;;;16.57;;
3571;SDS011;7958;53.024;12.970;2023-04-16T02:14:14;32.37;;;17.83;;
3571;SDS011;7958;53.024;12.970;2023-04-16T02:16:41;28.30;;;17.60;;
3571;SDS011;7958;53.024;12.970;2023-04-16T02:19:07;22.80;;;16.27;;
3571;SDS011;7958;53.024;12.970;2023-04-16T02:21:33;29.30;;;17.07;;
3571;SDS011;7958;53.024;12.970;2023-04-16T02:24:00;27.10;;;17.63;;
3571;SDS011;7958;53.024;12.970;2023-04-16T02:26:26;27.60;;;17.63;;
3571;SDS011;7958;53.024;12.970;2023-04-16T02:28:56;26.20;;;17.03;;
3571;SDS011;7958;53.024;12.970;2023-04-16T02:31:24;29.80;;;17.53;;
3571;SDS011;7958;53.024;12.970;2023-04-16T02:33:52;28.33;;;17.90;;
3571;SDS011;7958;53.024;12.970;2023-04-16T02:36:19;25.77;;;16.70;;
3571;SDS011;7958;53.024;12.970;2023-04-16T02:38:45;23.60;;;16.13;;
3571;SDS011;7958;53.024;12.970;2023-04-16T02:41:11;22.50;;;15.70;;
3571;SDS011;7958;53.024;12.970;2023-04-16T02:43:38;32.67;;;16.50;;
3571;SDS011;7958;53.024;12.970;2023-04-16T02:46:04;32.00;;;17.70;;
3571;SDS011;7958;53.024;12.970;2023-04-16T02:48:32;25.37;;;16.10;;
3571;SDS011;7958;53.024;12.970;2023-04-16T02:50:59;35.07;;;16.70;;
3571;SDS011;7958;53.024;12.970;2023-04-16T02:53:25;36.73;;;19.70;;
3571;SDS011;7958;53.024;12.970;2023-04-16T02:55:52;31.30;;;18.13;;
3571;SDS011;7958;53.024;12.970;2023-04-16T02:58:22;26.30;;;18.20;;
3571;SDS011;7958;53.024;12.970;2023-04-16T03:00:54;30.27;;;17.37;;
3571;SDS011;7958;53.024;12.970;2023-04-16T03:03:21;35.40;;;18.67;;
3571;SDS011;7958;53.024;12.970;2023-04-16T03:05:49;33.57;;;18.50;;
3571;SDS011;7958;53.024;12.970;2023-04-16T03:08:15;36.87;;;17.60;;
3571;SDS011;7958;53.024;12.970;2023-04-16T03:10:42;27.00;;;16.93;;
3571;SDS011;7958;53.024;12.970;2023-04-16T03:13:08;39.13;;;19.53;;
3571;SDS011;7958;53.024;12.970;2023-04-16T03:15:35;33.20;;;18.90;;
3571;SDS011;7958;53.024;12.970;2023-04-16T03:18:01;37.30;;;19.60;;
3571;SDS011;7958;53.024;12.970;2023-04-16T03:20:28;34.10;;;19.90;;
3571;SDS011;7958;53.024;12.970;2023-04-16T03:22:55;31.63;;;17.90;;
3571;SDS011;7958;53.024;12.970;2023-04-16T03:25:23;28.07;;;18.60;;
3571;SDS011;7958;53.024;12.970;2023-04-16T03:27:49;27.93;;;18.43;;
3571;SDS011;7958;53.024;12.970;2023-04-16T03:30:15;29.37;;;18.10;;
3571;SDS011;7958;53.024;12.970;2023-04-16T03:32:42;33.27;;;18.90;;
3571;SDS011;7958;53.024;12.970;2023-04-16T03:35:09;29.50;;;19.67;;
3571;SDS011;7958;53.024;12.970;2023-04-16T03:37:39;34.03;;;18.60;;
3571;SDS011;7958;53.024;12.970;2023-04-16T03:40:07;32.60;;;20.30;;
3571;SDS011;7958;53.024;12.970;2023-04-16T03:42:34;35.10;;;19.70;;
3571;SDS011;7958;53.024;12.970;2023-04-16T03:45:07;31.77;;;18.53;;
3571;SDS011;7958;53.024;12.970;2023-04-16T03:47:36;34.63;;;19.87;;
3571;SDS011;7958;53.024;12.970;2023-04-16T03:50:03;37.77;;;18.83;;
3571;SDS011;7958;53.024;12.970;2023-04-16T03:52:30;33.57;;;19.37;;
3571;SDS011;7958;53.024;12.970;2023-04-16T03:54:57;36.30;;;19.37;;
3571;SDS011;7958;53.024;12.970;2023-04-16T03:57:24;30.87;;;18.17;;
3571;SDS011;7958;53.024;12.970;2023-04-16T03:59:51;29.10;;;19.83;;
3571;SDS011;7958;53.024;12.970;2023-04-16T04:02:24;32.37;;;20.17;;
3571;SDS011;7958;53.024;12.970;2023-04-16T04:04:51;27.93;;;18.17;;
3571;SDS011;7958;53.024;12.970;2023-04-16T04:07:17;35.03;;;21.00;;
3571;SDS011;7958;53.024;12.970;2023-04-16T04:09:43;34.70;;;19.50;;
3571;SDS011;7958;53.024;12.970;2023-04-16T04:12:10;34.57;;;20.10;;
3571;SDS011;7958;53.024;12.970;2023-04-16T04:14:39;39.43;;;20.73;;
3571;SDS011;7958;53.024;12.970;2023-04-16T04:17:08;40.53;;;20.50;;
3571;SDS011;7958;53.024;12.970;2023-04-16T04:19:44;31.83;;;19.33;;
3571;SDS011;7958;53.024;12.970;2023-04-16T04:22:10;33.63;;;19.00;;
3571;SDS011;7958;53.024;12.970;2023-04-16T04:24:37;38.93;;;20.77;;
3571;SDS011;7958;53.024;12.970;2023-04-16T04:27:03;43.70;;;21.10;;
3571;SDS011;7958;53.024;12.970;2023-04-16T04:29:29;34.43;;;19.20;;
3571;SDS011;7958;53.024;12.970;2023-04-16T04:31:57;36.43;;;21.13;;
3571;SDS011;7958;53.024;12.970;2023-04-16T04:34:24;37.57;;;20.17;;
3571;SDS011;7958;53.024;12.970;2023-04-16T04:36:50;42.53;;;21.20;;
3571;SDS011;7958;53.024;12.970;2023-04-16T04:39:16;35.50;;;19.87;;
3571;SDS011;7958;53.024;12.970;2023-04-16T04:41:45;40.97;;;20.93;;
3571;SDS011;7958;53.024;12.970;2023-04-16T04:44:12;32.87;;;19.63;;
3571;SDS011;7958;53.024;12.970;2023-04-16T04:46:38;35.90;;;20.30;;
3571;SDS011;7958;53.024;12.970;2023-04-16T04:49:06;43.93;;;22.03;;
3571;SDS011;7958;53.024;12.970;2023-04-16T04:51:32;36.07;;;19.20;;
3571;SDS011;7958;53.024;12.970;2023-04-16T04:53:59;40.47;;;20.47;;
3571;SDS011;7958;53.024;12.970;2023-04-16T04:56:25;34.23;;;19.87;;
3571;SDS011;7958;53.024;12.970;2023-04-16T04:58:51;34.87;;;18.80;;
3571;SDS011;7958;53.024;12.970;2023-04-16T05:01:18;34.73;;;20.63;;
3571;SDS011;7958;53.024;12.970;2023-04-16T05:03:44;35.47;;;20.40;;
3571;SDS011;7958;53.024;12.970;2023-04-16T05:06:12;38.60;;;21.10;;
3571;SDS011;7958;53.024;12.970;2023-04-16T05:08:38;31.23;;;19.07;;
3571;SDS011;7958;53.024;12.970;2023-04-16T05:11:05;35.77;;;20.10;;
3571;SDS011;7958;53.024;12.970;2023-04-16T05:13:34;38.43;;;20.70;;
3571;SDS011;7958;53.024;12.970;2023-04-16T05:16:01;33.60;;;20.70;;
3571;SDS011;7958;53.024;12.970;2023-04-16T05:18:27;37.83;;;19.30;;
3571;SDS011;7958;53.024;12.970;2023-04-16T05:21:12;33.03;;;19.60;;
3571;SDS011;7958;53.024;12.970;2023-04-16T05:23:38;37.13;;;19.70;;
3571;SDS011;7958;53.024;12.970;2023-04-16T05:26:04;33.17;;;19.00;;
3571;SDS011;7958;53.024;12.970;2023-04-16T05:28:31;36.87;;;20.07;;
3571;SDS011;7958;53.024;12.970;2023-04-16T05:30:57;39.33;;;21.33;;
3571;SDS011;7958;53.024;12.970;2023-04-16T05:33:26;42.10;;;20.30;;
3571;SDS011;7958;53.024;12.970;2023-04-16T05:35:52;33.07;;;20.33;;
3571;SDS011;7958;53.024;12.970;2023-04-16T05:38:23;35.27;;;20.60;;
3571;SDS011;7958;53.024;12.970;2023-04-16T05:40:49;34.67;;;21.10;;
3571;SDS011;7958;53.024;12.970;2023-04-16T05:43:16;33.27;;;20.97;;
3571;SDS011;7958;53.024;12.970;2023-04-16T05:45:42;30.70;;;20.13;;
3571;SDS011;7958;53.024;12.970;2023-04-16T05:48:10;31.73;;;18.93;;
3571;SDS011;7958;53.024;12.970;2023-04-16T05:50:37;32.77;;;20.07;;
3571;SDS011;7958;53.024;12.970;2023-04-16T05:53:05;37.67;;;20.07;;
3571;SDS011;7958;53.024;12.970;2023-04-16T05:55:33;38.77;;;20.53;;
3571;SDS011;7958;53.024;12.970;2023-04-16T05:58:00;31.00;;;19.17;;
3571;SDS011;7958;53.024;12.970;2023-04-16T06:00:28;35.80;;;19.10;;
3571;SDS011;7958;53.024;12.970;2023-04-16T06:02:54;34.57;;;19.40;;
3571;SDS011;7958;53.024;12.970;2023-04-16T06:05:24;33.70;;;19.60;;
3571;SDS011;7958;53.024;12.970;2023-04-16T06:07:56;31.43;;;18.60;;
3571;SDS011;7958;53.024;12.970;2023-04-16T06:10:27;32.43;;;17.83;;
3571;SDS011;7958;53.024;12.970;2023-04-16T06:12:58;37.97;;;18.13;;
3571;SDS011;7958;53.024;12.970;2023-04-16T06:15:27;32.70;;;18.73;;
3571;SDS011;7958;53.024;12.970;2023-04-16T06:17:54;29.27;;;17.27;;
3571;SDS011;7958;53.024;12.970;2023-04-16T06:20:21;36.20;;;18.47;;
3571;SDS011;7958;53.024;12.970;2023-04-16T06:22:58;33.57;;;19.30;;
3571;SDS011;7958;53.024;12.970;2023-04-16T06:25:24;25.33;;;17.40;;
3571;SDS011;7958;53.024;12.970;2023-04-16T06:27:51;35.33;;;19.63;;
3571;SDS011;7958;53.024;12.970;2023-04-16T06:30:21;38.03;;;19.57;;
3571;SDS011;7958;53.024;12.970;2023-04-16T06:32:47;31.70;;;19.10;;
3571;SDS011;7958;53.024;12.970;2023-04-16T06:35:14;36.57;;;18.40;;
3571;SDS011;7958;53.024;12.970;2023-04-16T06:37:41;30.93;;;17.80;;
3571;SDS011;7958;53.024;12.970;2023-04-16T06:40:07;28.90;;;18.47;;
3571;SDS011;7958;53.024;12.970;2023-04-16T06:42:37;27.30;;;15.87;;
3571;SDS011;7958;53.024;12.970;2023-04-16T06:45:07;35.63;;;18.13;;
3571;SDS011;7958;53.024;12.970;2023-04-16T06:47:38;32.67;;;18.33;;
3571;SDS011;7958;53.024;12.970;2023-04-16T06:50:07;26.90;;;15.43;;
3571;SDS011;7958;53.024;12.970;2023-04-16T06:52:35;27.73;;;16.37;;
3571;SDS011;7958;53.024;12.970;2023-04-16T06:55:01;21.10;;;14.57;;
3571;SDS011;7958;53.024;12.970;2023-04-16T06:57:27;24.33;;;15.57;;
3571;SDS011;7958;53.024;12.970;2023-04-16T06:59:59;22.17;;;15.03;;
3571;SDS011;7958;53.024;12.970;2023-04-16T07:02:26;19.90;;;13.47;;
3571;SDS011;7958;53.024;12.970;2023-04-16T07:04:56;23.87;;;15.00;;
3571;SDS011;7958;53.024;12.970;2023-04-16T07:07:25;24.63;;;13.70;;
3571;SDS011;7958;53.024;12.970;2023-04-16T07:09:51;23.37;;;14.10;;
3571;SDS011;7958;53.024;12.970;2023-04-16T07:12:20;21.80;;;15.33;;
3571;SDS011;7958;53.024;12.970;2023-04-16T07:14:47;22.07;;;14.43;;
3571;SDS011;7958;53.024;12.970;2023-04-16T07:17:13;22.20;;;14.17;;
3571;SDS011;7958;53.024;12.970;2023-04-16T07:19:39;22.07;;;14.07;;
3571;SDS011;7958;53.024;12.970;2023-04-16T07:22:07;17.73;;;13.00;;
3571;SDS011;7958;53.024;12.970;2023-04-16T07:24:34;23.70;;;15.17;;
3571;SDS011;7958;53.024;12.970;2023-04-16T07:27:00;19.60;;;13.57;;
3571;SDS011;7958;53.024;12.970;2023-04-16T07:29:28;19.30;;;13.63;;
3571;SDS011;7958;53.024;12.970;2023-04-16T07:31:57;18.27;;;13.20;;
3571;SDS011;7958;53.024;12.970;2023-04-16T07:34:23;20.47;;;13.90;;
3571;SDS011;7958;53.024;12.970;2023-04-16T07:36:51;17.77;;;13.37;;
3571;SDS011;7958;53.024;12.970;2023-04-16T07:39:21;19.77;;;13.20;;
3571;SDS011;7958;53.024;12.970;2023-04-16T07:41:47;20.30;;;14.03;;
3571;SDS011;7958;53.024;12.970;2023-04-16T07:44:14;22.00;;;15.00;;
3571;SDS011;7958;53.024;12.970;2023-04-16T07:46:43;24.13;;;14.50;;
3571;SDS011;7958;53.024;12.970;2023-04-16T07:49:09;21.40;;;14.33;;
3571;SDS011;7958;53.024;12.970;2023-04-16T07:51:35;24.47;;;15.80;;
3571;SDS011;7958;53.024;12.970;2023-04-16T07:54:02;27.47;;;14.37;;
3571;SDS011;7958;53.024;12.970;2023-04-16T07:56:29;22.33;;;15.50;;
3571;SDS011;7958;53.024;12.970;2023-04-16T07:58:56;23.10;;;14.30;;
3571;SDS011;7958;53.024;12.970;2023-04-16T08:01:22;19.60;;;13.40;;
3571;SDS011;7958;53.024;12.970;2023-04-16T08:03:54;22.90;;;14.97;;
3571;SDS011;7958;53.024;12.970;2023-04-16T08:06:21;19.87;;;14.47;;
3571;SDS011;7958;53.024;12.970;2023-04-16T08:08:50;18.23;;;13.53;;
3571;SDS011;7958;53.024;12.970;2023-04-16T08:11:17;20.70;;;13.40;;
3571;SDS011;7958;53.024;12.970;2023-04-16T08:13:45;18.67;;;13.30;;
3571;SDS011;7958;53.024;12.970;2023-04-16T08:16:12;17.80;;;13.27;;
3571;SDS011;7958;53.024;12.970;2023-04-16T08:18:38;20.27;;;13.13;;
3571;SDS011;7958;53.024;12.970;2023-04-16T08:21:04;20.80;;;13.10;;
3571;SDS011;7958;53.024;12.970;2023-04-16T08:23:31;17.73;;;12.80;;
3571;SDS011;7958;53.024;12.970;2023-04-16T08:26:00;19.70;;;14.50;;
3571;SDS011;7958;53.024;12.970;2023-04-16T08:28:27;22.00;;;14.43;;
3571;SDS011;7958;53.024;12.970;2023-04-16T08:30:54;26.23;;;15.57;;
3571;SDS011;7958;53.024;12.970;2023-04-16T08:33:21;23.30;;;14.40;;
3571;SDS011;7958;53.024;12.970;2023-04-16T08:35:47;22.20;;;14.20;;
3571;SDS011;7958;53.024;12.970;2023-04-16T08:38:14;20.67;;;13.40;;
3571;SDS011;7958;53.024;12.970;2023-04-16T08:40:40;20.43;;;14.33;;
3571;SDS011;7958;53.024;12.970;2023-04-16T08:43:08;17.77;;;14.07;;
3571;SDS011;7958;53.024;12.970;2023-04-16T08:45:35;16.53;;;12.53;;
3571;SDS011;7958;53.024;12.970;2023-04-16T08:48:05;18.20;;;13.60;;
3571;SDS011;7958;53.024;12.970;2023-04-16T08:50:32;17.17;;;12.90;;
3571;SDS011;7958;53.024;12.970;2023-04-16T08:52:59;16.03;;;12.43;;
3571;SDS011;7958;53.024;12.970;2023-04-16T08:55:29;16.37;;;12.10;;
3571;SDS011;7958;53.024;12.970;2023-04-16T08:58:02;14.10;;;10.97;;
3571;SDS011;7958;53.024;12.970;2023-04-16T09:00:34;17.67;;;12.30;;
3571;SDS011;7958;53.024;12.970;2023-04-16T09:03:07;12.37;;;10.30;;
3571;SDS011;7958;53.024;12.970;2023-04-16T09:05:36;12.40;;;10.57;;
3571;SDS011;7958;53.024;12.970;2023-04-16T09:08:08;12.60;;;9.60;;
3571;SDS011;7958;53.024;12.970;2023-04-16T09:10:34;12.40;;;10.03;;
3571;SDS011;7958;53.024;12.970;2023-04-16T09:13:02;12.03;;;9.33;;
3571;SDS011;7958;53.024;12.970;2023-04-16T09:15:29;14.73;;;10.00;;
3571;SDS011;7958;53.024;12.970;2023-04-16T09:17:56;12.83;;;9.23;;
3571;SDS011;7958;53.024;12.970;2023-04-16T09:20:24;10.90;;;9.57;;
3571;SDS011;7958;53.024;12.970;2023-04-16T09:22:59;10.27;;;8.50;;
3571;SDS011;7958;53.024;12.970;2023-04-16T09:25:26;11.43;;;9.17;;
3571;SDS011;7958;53.024;12.970;2023-04-16T09:27:52;11.63;;;9.70;;
3571;SDS011;7958;53.024;12.970;2023-04-16T09:30:23;13.10;;;10.20;;
3571;SDS011;7958;53.024;12.970;2023-04-16T09:32:51;16.03;;;11.33;;
3571;SDS011;7958;53.024;12.970;2023-04-16T09:35:18;14.50;;;10.50;;
3571;SDS011;7958;53.024;12.970;2023-04-16T09:37:55;13.47;;;10.37;;
3571;SDS011;7958;53.024;12.970;2023-04-16T09:40:23;12.03;;;9.83;;
3571;SDS011;7958;53.024;12.970;2023-04-16T09:42:55;12.10;;;10.30;;
3571;SDS011;7958;53.024;12.970;2023-04-16T09:45:24;15.90;;;12.03;;
3571;SDS011;7958;53.024;12.970;2023-04-16T09:47:50;14.27;;;11.03;;
3571;SDS011;7958;53.024;12.970;2023-04-16T09:50:20;12.90;;;10.23;;
3571;SDS011;7958;53.024;12.970;2023-04-16T09:52:47;15.97;;;10.63;;
3571;SDS011;7958;53.024;12.970;2023-04-16T09:55:15;13.43;;;10.60;;
3571;SDS011;7958;53.024;12.970;2023-04-16T09:57:44;13.67;;;10.27;;
3571;SDS011;7958;53.024;12.970;2023-04-16T10:00:21;11.17;;;10.07;;
3571;SDS011;7958;53.024;12.970;2023-04-16T10:02:48;10.13;;;8.90;;
3571;SDS011;7958;53.024;12.970;2023-04-16T10:05:15;14.90;;;10.63;;
3571;SDS011;7958;53.024;12.970;2023-04-16T10:07:43;13.50;;;9.57;;
3571;SDS011;7958;53.024;12.970;2023-04-16T10:10:10;13.80;;;9.27;;
3571;SDS011;7958;53.024;12.970;2023-04-16T10:12:38;11.83;;;9.40;;
3571;SDS011;7958;53.024;12.970;2023-04-16T10:15:06;13.90;;;10.40;;
3571;SDS011;7958;53.024;12.970;2023-04-16T10:17:34;11.60;;;9.10;;
3571;SDS011;7958;53.024;12.970;2023-04-16T10:20:01;13.73;;;10.27;;
3571;SDS011;7958;53.024;12.970;2023-04-16T10:22:28;13.13;;;8.97;;
3571;SDS011;7958;53.024;12.970;2023-04-16T10:24:56;11.80;;;9.67;;
3571;SDS011;7958;53.024;12.970;2023-04-16T10:27:24;12.57;;;10.13;;
3571;SDS011;7958;53.024;12.970;2023-04-16T10:29:53;12.27;;;10.13;;
3571;SDS011;7958;53.024;12.970;2023-04-16T10:32:25;15.00;;;9.83;;
3571;SDS011;7958;53.024;12.970;2023-04-16T10:34:53;12.50;;;10.10;;
3571;SDS011;7958;53.024;12.970;2023-04-16T10:37:21;12.77;;;10.03;;
3571;SDS011;7958;53.024;12.970;2023-04-16T10:39:54;14.27;;;10.10;;
3571;SDS011;7958;53.024;12.970;2023-04-16T10:42:24;11.00;;;9.50;;
3571;SDS011;7958;53.024;12.970;2023-04-16T10:44:52;11.20;;;8.70;;
3571;SDS011;7958;53.024;12.970;2023-04-16T10:47:19;9.23;;;8.20;;
3571;SDS011;7958;53.024;12.970;2023-04-16T10:49:49;8.83;;;7.87;;
3571;SDS011;7958;53.024;12.970;2023-04-16T10:52:16;11.23;;;8.03;;
3571;SDS011;7958;53.024;12.970;2023-04-16T10:57:44;9.50;;;7.80;;
3571;SDS011;7958;53.024;12.970;2023-04-16T11:00:21;8.53;;;7.60;;
3571;SDS011;7958;53.024;12.970;2023-04-16T11:05:43;10.70;;;8.97;;
3571;SDS011;7958;53.024;12.970;2023-04-16T11:08:12;9.27;;;8.37;;
3571;SDS011;7958;53.024;12.970;2023-04-16T11:10:39;11.17;;;8.63;;
3571;SDS011;7958;53.024;12.970;2023-04-16T11:13:05;10.00;;;8.57;;
3571;SDS011;7958;53.024;12.970;2023-04-16T11:15:34;9.63;;;8.50;;
3571;SDS011;7958;53.024;12.970;2023-04-16T11:18:01;11.53;;;7.93;;
3571;SDS011;7958;53.024;12.970;2023-04-16T11:20:28;9.20;;;8.27;;
3571;SDS011;7958;53.024;12.970;2023-04-16T11:22:55;8.93;;;8.03;;
3571;SDS011;7958;53.024;12.970;2023-04-16T11:25:23;10.90;;;8.80;;
3571;SDS011;7958;53.024;12.970;2023-04-16T11:27:51;10.20;;;8.17;;
3571;SDS011;7958;53.024;12.970;2023-04-16T11:30:26;8.90;;;7.17;;
3571;SDS011;7958;53.024;12.970;2023-04-16T11:32:55;9.20;;;7.80;;
3571;SDS011;7958;53.024;12.970;2023-04-16T11:35:22;11.00;;;8.43;;
3571;SDS011;7958;53.024;12.970;2023-04-16T11:37:48;9.50;;;6.80;;
3571;SDS011;7958;53.024;12.970;2023-04-16T11:40:15;10.40;;;8.10;;
3571;SDS011;7958;53.024;12.970;2023-04-16T11:42:42;9.03;;;7.10;;
3571;SDS011;7958;53.024;12.970;2023-04-16T11:45:09;9.50;;;8.00;;
3571;SDS011;7958;53.024;12.970;2023-04-16T11:47:44;10.47;;;7.90;;
3571;SDS011;7958;53.024;12.970;2023-04-16T11:50:17;12.67;;;8.13;;
3571;SDS011;7958;53.024;12.970;2023-04-16T11:52:44;9.77;;;7.60;;
3571;SDS011;7958;53.024;12.970;2023-04-16T11:55:10;9.40;;;8.10;;
3571;SDS011;7958;53.024;12.970;2023-04-16T11:57:37;7.90;;;7.10;;
3571;SDS011;7958;53.024;12.970;2023-04-16T12:00:04;9.03;;;7.40;;
3571;SDS011;7958;53.024;12.970;2023-04-16T12:02:38;9.10;;;8.13;;
3571;SDS011;7958;53.024;12.970;2023-04-16T12:05:06;7.40;;;6.70;;
3571;SDS011;7958;53.024;12.970;2023-04-16T12:07:43;8.40;;;7.30;;
3571;SDS011;7958;53.024;12.970;2023-04-16T12:10:10;10.50;;;7.23;;
3571;SDS011;7958;53.024;12.970;2023-04-16T12:12:40;9.67;;;6.63;;
3571;SDS011;7958;53.024;12.970;2023-04-16T12:15:06;8.00;;;6.20;;
3571;SDS011;7958;53.024;12.970;2023-04-16T12:17:34;8.17;;;6.60;;
3571;SDS011;7958;53.024;12.970;2023-04-16T12:20:01;6.27;;;5.30;;
3571;SDS011;7958;53.024;12.970;2023-04-16T12:22:33;6.03;;;5.43;;
3571;SDS011;7958;53.024;12.970;2023-04-16T12:25:03;7.50;;;6.00;;
3571;SDS011;7958;53.024;12.970;2023-04-16T12:27:40;7.93;;;6.10;;
3571;SDS011;7958;53.024;12.970;2023-04-16T12:30:08;7.23;;;5.60;;
3571;SDS011;7958;53.024;12.970;2023-04-16T12:32:34;5.50;;;4.80;;
3571;SDS011;7958;53.024;12.970;2023-04-16T12:35:01;6.97;;;5.60;;
3571;SDS011;7958;53.024;12.970;2023-04-16T12:37:27;5.83;;;5.17;;
3571;SDS011;7958;53.024;12.970;2023-04-16T12:39:54;8.03;;;5.50;;
3571;SDS011;7958;53.024;12.970;2023-04-16T12:42:22;7.97;;;5.50;;
3571;SDS011;7958;53.024;12.970;2023-04-16T12:44:48;5.20;;;4.70;;
3571;SDS011;7958;53.024;12.970;2023-04-16T12:47:15;6.00;;;4.90;;
3571;SDS011;7958;53.024;12.970;2023-04-16T12:49:41;6.17;;;5.40;;
3571;SDS011;7958;53.024;12.970;2023-04-16T12:52:09;5.40;;;4.30;;
3571;SDS011;7958;53.024;12.970;2023-04-16T12:54:36;5.33;;;4.80;;
3571;SDS011;7958;53.024;12.970;2023-04-16T12:57:02;5.37;;;4.87;;
3571;SDS011;7958;53.024;12.970;2023-04-16T12:59:30;5.87;;;4.53;;
3571;SDS011;7958;53.024;12.970;2023-04-16T13:01:56;5.57;;;4.80;;
3571;SDS011;7958;53.024;12.970;2023-04-16T13:04:23;5.00;;;4.50;;
3571;SDS011;7958;53.024;12.970;2023-04-16T13:06:50;4.67;;;4.27;;
3571;SDS011;7958;53.024;12.970;2023-04-16T13:09:16;5.70;;;5.10;;
3571;SDS011;7958;53.024;12.970;2023-04-16T13:11:44;6.13;;;5.10;;
3571;SDS011;7958;53.024;12.970;2023-04-16T13:14:10;5.10;;;4.60;;
3571;SDS011;7958;53.024;12.970;2023-04-16T13:16:38;8.80;;;4.87;;
3571;SDS011;7958;53.024;12.970;2023-04-16T13:19:05;7.20;;;5.00;;
3571;SDS011;7958;53.024;12.970;2023-04-16T13:21:32;6.77;;;5.10;;
3571;SDS011;7958;53.024;12.970;2023-04-16T13:23:58;5.27;;;4.80;;
3571;SDS011;7958;53.024;12.970;2023-04-16T13:26:26;5.57;;;4.70;;
3571;SDS011;7958;53.024;12.970;2023-04-16T13:28:52;5.40;;;4.50;;
3571;SDS011;7958;53.024;12.970;2023-04-16T13:31:19;4.50;;;4.20;;
3571;SDS011;7958;53.024;12.970;2023-04-16T13:33:47;6.80;;;4.00;;
3571;SDS011;7958;53.024;12.970;2023-04-16T13:36:14;4.13;;;3.73;;
3571;SDS011;7958;53.024;12.970;2023-04-16T13:38:40;3.90;;;3.60;;
3571;SDS011;7958;53.024;12.970;2023-04-16T13:41:07;3.90;;;3.60;;
3571;SDS011;7958;53.024;12.970;2023-04-16T13:43:34;3.87;;;3.57;;
3571;SDS011;7958;53.024;12.970;2023-04-16T13:46:00;6.50;;;3.27;;
3571;SDS011;7958;53.024;12.970;2023-04-16T13:48:27;4.50;;;4.13;;
3571;SDS011;7958;53.024;12.970;2023-04-16T13:50:55;4.47;;;4.03;;
3571;SDS011;7958;53.024;12.970;2023-04-16T13:53:21;3.63;;;3.33;;
3571;SDS011;7958;53.024;12.970;2023-04-16T13:55:47;3.80;;;3.50;;
3571;SDS011;7958;53.024;12.970;2023-04-16T13:58:14;3.60;;;3.30;;
3571;SDS011;7958;53.024;12.970;2023-04-16T14:00:41;4.23;;;3.83;;
3571;SDS011;7958;53.024;12.970;2023-04-16T14:03:07;6.53;;;3.53;;
3571;SDS011;7958;53.024;12.970;2023-04-16T14:05:34;3.90;;;3.50;;
3571;SDS011;7958;53.024;12.970;2023-04-16T14:08:02;3.27;;;3.00;;
3571;SDS011;7958;53.024;12.970;2023-04-16T14:10:29;3.90;;;3.50;;
3571;SDS011;7958;53.024;12.970;2023-04-16T14:12:56;3.47;;;3.17;;
3571;SDS011;7958;53.024;12.970;2023-04-16T14:15:22;3.23;;;2.70;;
3571;SDS011;7958;53.024;12.970;2023-04-16T14:17:51;3.17;;;2.97;;
3571;SDS011;7958;53.024;12.970;2023-04-16T14:20:17;6.00;;;2.67;;
3571;SDS011;7958;53.024;12.970;2023-04-16T14:22:44;2.87;;;2.67;;
3571;SDS011;7958;53.024;12.970;2023-04-16T14:25:11;2.77;;;2.60;;
3571;SDS011;7958;53.024;12.970;2023-04-16T14:27:38;2.33;;;2.23;;
3571;SDS011;7958;53.024;12.970;2023-04-16T14:30:06;2.67;;;2.37;;
3571;SDS011;7958;53.024;12.970;2023-04-16T14:32:33;2.00;;;1.90;;
3571;SDS011;7958;53.024;12.970;2023-04-16T14:35:01;2.40;;;2.20;;
3571;SDS011;7958;53.024;12.970;2023-04-16T14:37:28;2.40;;;2.20;;
3571;SDS011;7958;53.024;12.970;2023-04-16T14:39:54;3.20;;;3.00;;
3571;SDS011;7958;53.024;12.970;2023-04-16T14:42:22;2.13;;;2.03;;
3571;SDS011;7958;53.024;12.970;2023-04-16T14:44:48;2.27;;;2.07;;
3571;SDS011;7958;53.024;12.970;2023-04-16T14:47:16;2.10;;;2.00;;
3571;SDS011;7958;53.024;12.970;2023-04-16T14:49:42;2.00;;;1.90;;